Time;durP1;ratioP1;P1;durP2;ratioP2;P2;SDS_P1;SDS_P2;PMS_P1;PMS_P2;Temp;Humidity;BMP_temperature;BMP_pressure;BME280_temperature;BME280_humidity;BME280_pressure;Samples;Min_cycle;Max_cycle;Signal;HPM_P1;HPM_P2
2021/01/05 00:01:13;;;;;;;5.03;3.53;;;3.50;99.90;;;;;;5071095;28;20224;-85
2021/01/05 00:03:40;;;;;;;7.20;3.27;;;3.50;99.90;;;;;;5070112;28;20254;-89
2021/01/05 00:06:06;;;;;;;5.43;3.53;;;3.50;99.90;;;;;;5071480;28;20197;-90
2021/01/05 00:08:34;;;;;;;6.97;4.00;;;3.50;99.90;;;;;;5071780;28;20545;-87
2021/01/05 00:11:00;;;;;;;6.10;4.10;;;3.50;99.90;;;;;;5070729;28;20202;-82
2021/01/05 00:13:26;;;;;;;6.57;3.50;;;3.50;99.90;;;;;;5071348;28;20205;-84
2021/01/05 00:15:52;;;;;;;4.37;3.90;;;3.50;99.90;;;;;;5071368;28;20279;-88
2021/01/05 00:18:19;;;;;;;4.63;3.40;;;3.50;99.90;;;;;;5071861;28;20197;-88
2021/01/05 00:20:45;;;;;;;6.73;4.20;;;3.50;99.90;;;;;;5071356;28;20193;-89
2021/01/05 00:23:12;;;;;;;5.53;3.70;;;3.50;99.90;;;;;;5070907;28;20504;-80
2021/01/05 00:25:39;;;;;;;6.57;3.93;;;3.50;99.90;;;;;;5071133;28;20200;-89
2021/01/05 00:28:05;;;;;;;6.47;3.60;;;3.50;99.90;;;;;;5070645;28;20244;-88
2021/01/05 00:30:32;;;;;;;5.80;4.07;;;3.50;99.90;;;;;;5071139;28;20229;-86
2021/01/05 00:32:58;;;;;;;7.03;3.43;;;3.50;99.90;;;;;;5070836;28;20212;-87
2021/01/05 00:35:26;;;;;;;5.83;4.00;;;3.50;99.90;;;;;;5071294;28;20189;-90
2021/01/05 00:37:52;;;;;;;5.13;3.70;;;3.50;99.90;;;;;;5071728;28;20202;-90
2021/01/05 00:40:20;;;;;;;7.13;3.50;;;3.50;99.90;;;;;;5070132;28;20193;-83
2021/01/05 00:42:47;;;;;;;5.23;3.33;;;3.50;99.90;;;;;;5070308;28;20201;-86
2021/01/05 00:45:19;;;;;;;5.87;4.00;;;3.50;99.90;;;;;;5070831;28;20208;-85
2021/01/05 00:47:45;;;;;;;3.37;3.07;;;3.50;99.90;;;;;;5071008;28;20186;-89
2021/01/05 00:50:12;;;;;;;4.67;3.80;;;3.50;99.90;;;;;;5069952;28;20292;-90
2021/01/05 00:52:39;;;;;;;4.70;3.60;;;3.60;99.90;;;;;;5070167;28;20205;-81
2021/01/05 00:55:06;;;;;;;6.03;3.63;;;3.50;99.90;;;;;;5070363;28;20204;-89
2021/01/05 00:57:33;;;;;;;6.97;3.30;;;3.60;99.90;;;;;;5070048;28;20205;-88
2021/01/05 01:00:00;;;;;;;7.53;3.80;;;3.60;99.90;;;;;;5071455;28;20189;-90
2021/01/05 01:02:26;;;;;;;6.43;3.90;;;3.60;99.90;;;;;;5071733;28;20855;-84
2021/01/05 01:04:53;;;;;;;4.23;3.17;;;3.50;99.90;;;;;;5069994;28;20534;-86
2021/01/05 01:07:19;;;;;;;6.47;3.20;;;3.50;99.90;;;;;;5070704;28;20207;-91
2021/01/05 01:09:46;;;;;;;9.30;3.50;;;3.50;99.90;;;;;;5071138;28;20237;-90
2021/01/05 01:12:19;;;;;;;3.77;3.20;;;3.60;99.90;;;;;;5070641;28;20618;-90
2021/01/05 01:14:47;;;;;;;7.43;3.73;;;3.50;99.90;;;;;;5071298;28;20738;-89
2021/01/05 01:17:15;;;;;;;4.23;3.30;;;3.50;99.90;;;;;;5070588;28;20299;-89
2021/01/05 01:19:41;;;;;;;6.30;3.63;;;3.50;99.90;;;;;;5070395;28;20251;-89
2021/01/05 01:22:08;;;;;;;3.63;2.93;;;3.50;99.90;;;;;;5069954;28;20197;-82
2021/01/05 01:24:34;;;;;;;6.10;3.63;;;3.50;99.90;;;;;;5070288;28;20213;-87
2021/01/05 01:27:01;;;;;;;8.23;3.77;;;3.50;99.90;;;;;;5070279;28;20673;-90
2021/01/05 01:29:28;;;;;;;6.40;3.50;;;3.50;99.90;;;;;;5070227;28;20237;-90
2021/01/05 01:31:56;;;;;;;4.47;3.27;;;3.40;99.90;;;;;;5068839;28;20217;-83
2021/01/05 01:34:26;;;;;;;6.87;3.43;;;3.50;99.90;;;;;;5067260;28;20691;-85
2021/01/05 01:36:57;;;;;;;4.23;3.47;;;3.50;99.90;;;;;;5065235;28;20209;-89
2021/01/05 01:39:23;;;;;;;5.83;3.60;;;3.50;99.90;;;;;;5067002;28;20212;-90
2021/01/05 01:41:50;;;;;;;4.40;3.40;;;3.50;99.90;;;;;;5070565;28;20201;-82
2021/01/05 01:44:19;;;;;;;7.43;3.63;;;3.50;99.90;;;;;;5069015;28;20866;-83
2021/01/05 01:46:45;;;;;;;3.60;3.03;;;3.50;99.90;;;;;;5069854;28;20205;-89
2021/01/05 01:49:12;;;;;;;5.53;3.63;;;3.50;99.90;;;;;;5070022;28;20831;-91
2021/01/05 01:51:40;;;;;;;7.47;3.83;;;3.50;99.90;;;;;;5070487;28;20205;-89
2021/01/05 01:54:28;;;;;;;6.30;3.60;;;3.50;99.90;;;;;;5068031;28;20197;-82
2021/01/05 01:57:21;;;;;;;4.33;3.60;;;3.50;99.90;;;;;;5055150;28;20204;-91
2021/01/05 02:00:03;;;;;;;4.43;3.37;;;3.50;99.90;;;;;;5069385;28;20237;-83
2021/01/05 02:02:40;;;;;;;3.80;2.97;;;3.50;99.90;;;;;;5069762;28;20208;-90
2021/01/05 02:05:11;;;;;;;4.63;3.40;;;3.50;99.90;;;;;;5069544;28;20195;-88
2021/01/05 02:07:50;;;;;;;5.33;4.00;;;3.50;99.90;;;;;;5069866;28;20193;-83
2021/01/05 02:10:47;;;;;;;4.97;3.47;;;3.50;99.90;;;;;;5069535;28;20208;-87
2021/01/05 02:13:40;;;;;;;4.83;3.70;;;3.50;99.90;;;;;;5069072;28;20185;-89
2021/01/05 02:16:23;;;;;;;4.30;3.33;;;3.50;99.90;;;;;;5069840;28;20643;-91
2021/01/05 02:18:53;;;;;;;5.13;3.87;;;3.50;99.90;;;;;;5070317;28;20483;-88
2021/01/05 02:21:24;;;;;;;8.00;3.90;;;3.50;99.90;;;;;;5069274;28;20201;-89
2021/01/05 02:24:12;;;;;;;5.63;3.93;;;3.50;99.90;;;;;;5069941;28;20197;-88
2021/01/05 02:26:46;;;;;;;5.97;3.57;;;3.50;99.90;;;;;;5070130;28;20202;-90
2021/01/05 02:29:19;;;;;;;5.00;4.20;;;3.50;99.90;;;;;;5069099;28;20887;-90
2021/01/05 02:32:03;;;;;;;4.83;3.80;;;3.50;99.90;;;;;;5069574;28;20502;-87
2021/01/05 02:34:57;;;;;;;4.97;3.83;;;3.50;99.90;;;;;;5069354;28;20196;-90
2021/01/05 02:37:39;;;;;;;7.03;4.73;;;3.50;99.90;;;;;;5069451;28;20282;-90
2021/01/05 02:40:40;;;;;;;4.60;3.90;;;3.50;99.90;;;;;;5066747;28;20189;-88
2021/01/05 02:43:42;;;;;;;6.90;4.03;;;3.50;99.90;;;;;;5063720;28;20532;-91
2021/01/05 02:46:26;;;;;;;3.73;3.30;;;3.50;99.90;;;;;;5067377;28;20230;-81
2021/01/05 02:49:18;;;;;;;6.20;3.70;;;3.50;99.90;;;;;;5067319;28;20248;-82
2021/01/05 02:52:24;;;;;;;5.43;3.67;;;3.50;99.90;;;;;;5068009;28;20201;-82
2021/01/05 02:55:31;;;;;;;5.13;4.53;;;3.50;99.90;;;;;;5066707;28;20841;-80
2021/01/05 02:58:12;;;;;;;4.47;4.07;;;3.50;99.90;;;;;;5066386;28;20200;-82
2021/01/05 03:01:20;;;;;;;5.03;3.50;;;3.50;99.90;;;;;;5066536;28;20205;-83
2021/01/05 03:03:48;;;;;;;5.03;3.73;;;3.50;99.90;;;;;;5067666;28;20213;-82
2021/01/05 03:06:39;;;;;;;4.43;3.93;;;3.50;99.90;;;;;;5066291;28;20193;-81
2021/01/05 03:09:23;;;;;;;6.00;4.30;;;3.40;99.90;;;;;;5067474;28;20221;-86
2021/01/05 03:12:05;;;;;;;6.97;4.30;;;3.50;99.90;;;;;;5066190;28;20186;-81
2021/01/05 03:14:39;;;;;;;4.10;3.70;;;3.50;99.90;;;;;;5066999;28;20197;-91
2021/01/05 03:17:21;;;;;;;5.47;4.07;;;3.50;99.90;;;;;;5066141;28;20212;-83
2021/01/05 03:19:58;;;;;;;4.57;4.03;;;3.50;99.90;;;;;;5068435;28;20193;-86
2021/01/05 03:22:30;;;;;;;4.20;3.80;;;3.50;99.90;;;;;;5069082;28;20196;-88
2021/01/05 03:24:59;;;;;;;4.57;3.83;;;3.50;99.90;;;;;;5068276;28;20205;-83
2021/01/05 03:27:26;;;;;;;5.63;4.03;;;3.50;99.90;;;;;;5068979;28;20197;-83
2021/01/05 03:29:55;;;;;;;7.33;4.50;;;3.50;99.90;;;;;;5069333;28;20226;-86
2021/01/05 03:32:22;;;;;;;5.63;3.63;;;3.60;99.90;;;;;;5068488;28;20209;-87
2021/01/05 03:34:48;;;;;;;4.57;3.80;;;3.60;99.90;;;;;;5069232;28;20232;-87
2021/01/05 03:37:14;;;;;;;5.00;4.50;;;3.50;99.90;;;;;;5069029;28;20259;-87
2021/01/05 03:39:41;;;;;;;5.53;4.20;;;3.60;99.90;;;;;;5069996;28;20202;-90
2021/01/05 03:42:07;;;;;;;4.50;3.90;;;3.50;99.90;;;;;;5069775;28;20208;-89
2021/01/05 03:44:34;;;;;;;5.47;4.23;;;3.60;99.90;;;;;;5070102;28;20196;-88
2021/01/05 03:47:00;;;;;;;5.77;4.37;;;3.50;99.90;;;;;;5071934;28;20209;-87
2021/01/05 03:49:28;;;;;;;4.47;4.07;;;3.50;99.90;;;;;;5073649;28;20221;-89
2021/01/05 03:51:54;;;;;;;6.90;4.80;;;3.60;99.90;;;;;;5073185;28;20266;-84
2021/01/05 03:54:22;;;;;;;6.53;4.83;;;3.60;99.90;;;;;;5072566;28;20208;-90
2021/01/05 03:56:48;;;;;;;5.50;4.23;;;3.60;99.90;;;;;;5073187;28;20209;-88
2021/01/05 03:59:15;;;;;;;6.53;4.43;;;3.50;99.90;;;;;;5072870;28;20556;-88
2021/01/05 04:01:49;;;;;;;5.10;4.43;;;3.60;99.90;;;;;;5072172;28;20205;-88
2021/01/05 04:04:16;;;;;;;5.13;4.20;;;3.50;99.90;;;;;;5064770;28;20193;-89
2021/01/05 04:06:43;;;;;;;6.77;4.73;;;3.60;99.90;;;;;;5072702;28;20205;-90
2021/01/05 04:09:09;;;;;;;4.77;4.10;;;3.60;99.90;;;;;;5073064;28;20228;-89
2021/01/05 04:11:36;;;;;;;6.27;4.23;;;3.60;99.90;;;;;;5070599;28;20228;-89
2021/01/05 04:14:02;;;;;;;4.87;4.20;;;3.60;99.90;;;;;;5072368;28;20255;-89
2021/01/05 04:16:29;;;;;;;7.50;4.50;;;3.60;99.90;;;;;;5072630;28;20201;-89
2021/01/05 04:18:55;;;;;;;5.60;4.00;;;3.60;99.90;;;;;;5071711;28;20262;-86
2021/01/05 04:21:21;;;;;;;6.20;4.10;;;3.60;99.90;;;;;;5072041;28;20209;-90
2021/01/05 04:23:48;;;;;;;5.40;4.40;;;3.60;99.90;;;;;;5072434;28;20208;-88
2021/01/05 04:26:15;;;;;;;6.67;4.33;;;3.60;99.90;;;;;;5072416;28;20231;-89
2021/01/05 04:28:41;;;;;;;6.63;4.37;;;3.60;99.90;;;;;;5071009;28;20228;-89
2021/01/05 04:31:07;;;;;;;5.17;4.40;;;3.60;99.90;;;;;;5070286;28;20228;-89
2021/01/05 04:33:33;;;;;;;5.23;3.80;;;3.60;99.90;;;;;;5065341;28;20201;-89
2021/01/05 04:36:00;;;;;;;4.97;4.40;;;3.50;99.90;;;;;;5070403;28;20319;-89
2021/01/05 04:38:26;;;;;;;6.43;4.03;;;3.60;99.90;;;;;;5071842;28;20197;-89
2021/01/05 04:40:53;;;;;;;7.80;4.30;;;3.70;99.90;;;;;;5069449;28;20205;-88
2021/01/05 04:43:46;;;;;;;5.57;4.10;;;3.60;99.90;;;;;;5069911;28;20255;-90
2021/01/05 04:46:39;;;;;;;6.43;4.30;;;3.70;99.90;;;;;;5055966;28;20205;-90
2021/01/05 04:49:34;;;;;;;5.93;4.43;;;3.60;99.90;;;;;;5052873;28;20239;-88
2021/01/05 04:52:05;;;;;;;5.10;3.90;;;3.70;99.90;;;;;;5072173;28;20197;-89
2021/01/05 04:54:36;;;;;;;4.37;3.67;;;3.60;99.90;;;;;;5070229;28;20564;-87
2021/01/05 04:57:07;;;;;;;4.77;4.13;;;3.60;99.90;;;;;;5072168;28;20201;-89
2021/01/05 04:59:38;;;;;;;4.97;4.30;;;3.60;99.90;;;;;;5071835;28;20229;-89
2021/01/05 05:02:17;;;;;;;5.87;4.77;;;3.60;99.90;;;;;;5069865;28;20205;-90
2021/01/05 05:04:51;;;;;;;4.20;3.40;;;3.70;99.90;;;;;;5071886;28;20205;-87
2021/01/05 05:07:27;;;;;;;5.70;4.30;;;3.70;99.90;;;;;;5066817;28;20259;-88
2021/01/05 05:09:56;;;;;;;5.50;4.00;;;3.70;99.90;;;;;;5065691;28;20229;-84
2021/01/05 05:12:45;;;;;;;7.13;4.40;;;3.60;99.90;;;;;;5065593;28;20205;-85
2021/01/05 05:15:35;;;;;;;5.63;4.30;;;3.60;99.90;;;;;;5065232;28;20447;-88
2021/01/05 05:18:13;;;;;;;4.90;4.40;;;3.70;99.90;;;;;;5069216;28;20212;-84
2021/01/05 05:21:00;;;;;;;6.27;4.00;;;3.70;99.90;;;;;;5070254;28;20201;-83
2021/01/05 05:24:01;;;;;;;6.43;4.40;;;3.70;99.90;;;;;;5070397;28;20205;-84
2021/01/05 05:26:32;;;;;;;5.57;4.13;;;3.70;99.90;;;;;;5028505;28;20203;-84
2021/01/05 05:29:03;;;;;;;5.80;3.97;;;3.70;99.90;;;;;;5055415;28;20228;-83
2021/01/05 05:31:31;;;;;;;5.63;4.40;;;3.70;99.90;;;;;;5069810;28;20224;-84
2021/01/05 05:34:02;;;;;;;5.40;4.43;;;3.70;99.90;;;;;;5069911;28;20197;-84
2021/01/05 05:37:06;;;;;;;5.17;4.20;;;3.70;99.90;;;;;;5069724;28;20194;-84
2021/01/05 05:39:51;;;;;;;10.90;4.90;;;3.70;99.90;;;;;;5027372;28;20202;-85
2021/01/05 05:42:36;;;;;;;7.23;4.20;;;3.70;99.90;;;;;;5060420;28;20288;-87
2021/01/05 05:45:08;;;;;;;7.00;5.20;;;3.70;99.90;;;;;;5068711;28;20209;-83
2021/01/05 05:47:39;;;;;;;6.07;4.37;;;3.70;99.90;;;;;;5069526;28;20197;-84
2021/01/05 05:50:11;;;;;;;6.07;4.43;;;3.70;99.90;;;;;;5069272;28;20229;-87
2021/01/05 05:52:44;;;;;;;6.53;4.70;;;3.70;99.90;;;;;;5069682;28;20209;-85
2021/01/05 05:55:23;;;;;;;6.00;4.67;;;3.70;99.90;;;;;;5068605;28;20194;-84
2021/01/05 05:57:51;;;;;;;5.07;4.57;;;3.60;99.90;;;;;;5068842;28;20204;-84
2021/01/05 06:00:31;;;;;;;6.50;4.30;;;3.70;99.90;;;;;;5068430;28;20205;-88
2021/01/05 06:02:59;;;;;;;5.87;4.17;;;3.70;99.90;;;;;;5069137;28;20255;-82
2021/01/05 06:05:30;;;;;;;5.77;4.60;;;3.70;99.90;;;;;;5068179;28;20288;-86
2021/01/05 06:07:57;;;;;;;7.30;5.37;;;3.70;99.90;;;;;;5068392;28;20203;-82
2021/01/05 06:10:23;;;;;;;5.23;4.70;;;3.70;99.90;;;;;;5068597;28;20232;-86
2021/01/05 06:12:50;;;;;;;5.87;4.50;;;3.70;99.90;;;;;;5068243;28;20593;-82
2021/01/05 06:15:16;;;;;;;4.80;4.27;;;3.70;99.90;;;;;;5068286;28;20777;-83
2021/01/05 06:17:44;;;;;;;6.30;4.20;;;3.60;99.90;;;;;;5067751;28;20220;-84
2021/01/05 06:20:11;;;;;;;6.03;4.73;;;3.70;99.90;;;;;;5067852;28;20212;-83
2021/01/05 06:22:37;;;;;;;6.57;5.23;;;3.70;99.90;;;;;;5068745;28;20501;-84
2021/01/05 06:25:05;;;;;;;4.90;4.37;;;3.70;99.90;;;;;;5068571;28;20251;-82
2021/01/05 06:27:32;;;;;;;5.53;4.60;;;3.60;99.90;;;;;;5067877;28;20212;-86
2021/01/05 06:29:58;;;;;;;5.93;4.67;;;3.60;99.90;;;;;;5067427;28;20221;-88
2021/01/05 06:32:24;;;;;;;6.13;4.90;;;3.60;99.90;;;;;;5067022;28;20221;-85
2021/01/05 06:34:52;;;;;;;7.97;5.60;;;3.60;99.90;;;;;;5068314;28;20202;-85
2021/01/05 06:37:18;;;;;;;7.53;4.97;;;3.60;99.90;;;;;;5066302;28;20502;-83
2021/01/05 06:39:45;;;;;;;7.57;4.97;;;3.60;99.90;;;;;;5069390;28;20205;-84
2021/01/05 06:42:12;;;;;;;10.13;5.23;;;3.70;99.90;;;;;;5069254;28;20190;-89
2021/01/05 06:44:38;;;;;;;6.37;4.80;;;3.70;99.90;;;;;;5068615;28;20197;-87
2021/01/05 06:47:04;;;;;;;6.87;4.50;;;3.70;99.90;;;;;;5068797;28;20601;-80
2021/01/05 06:49:30;;;;;;;6.33;4.90;;;3.70;99.90;;;;;;5068642;28;20221;-86
2021/01/05 06:51:57;;;;;;;6.27;4.63;;;3.60;99.90;;;;;;5069143;28;20207;-82
2021/01/05 06:54:24;;;;;;;6.20;4.70;;;3.70;99.90;;;;;;5068885;28;20678;-81
2021/01/05 06:56:52;;;;;;;5.93;4.83;;;3.60;99.90;;;;;;5068740;28;20769;-84
2021/01/05 06:59:19;;;;;;;6.90;5.30;;;3.60;99.90;;;;;;5068897;28;20330;-92
2021/01/05 07:01:51;;;;;;;6.80;5.03;;;3.70;99.90;;;;;;5069207;28;20235;-85
2021/01/05 07:04:18;;;;;;;7.50;4.83;;;3.70;99.90;;;;;;5081668;22;20289;-85
2021/01/05 07:06:44;;;;;;;6.57;4.97;;;3.70;99.90;;;;;;5089901;28;20205;-82
2021/01/05 07:09:12;;;;;;;7.57;5.30;;;3.70;99.90;;;;;;5087668;28;20227;-90
2021/01/05 07:11:38;;;;;;;7.33;5.17;;;3.70;99.90;;;;;;5089318;28;20201;-89
2021/01/05 07:14:05;;;;;;;9.97;6.47;;;3.70;99.90;;;;;;5088867;28;20208;-86
2021/01/05 07:16:31;;;;;;;7.70;5.47;;;3.70;99.90;;;;;;5084881;28;20212;-83
2021/01/05 07:18:57;;;;;;;8.43;5.47;;;3.70;99.90;;;;;;5084799;28;20204;-83
2021/01/05 07:21:24;;;;;;;8.20;5.23;;;3.80;99.90;;;;;;5090719;28;20196;-83
2021/01/05 07:23:50;;;;;;;7.67;5.27;;;3.80;99.90;;;;;;5091255;28;20208;-82
2021/01/05 07:26:17;;;;;;;6.93;5.53;;;3.80;99.90;;;;;;5090409;28;20308;-82
2021/01/05 07:28:44;;;;;;;8.87;6.97;;;3.80;99.90;;;;;;5090525;28;20228;-83
2021/01/05 07:31:10;;;;;;;7.80;5.77;;;3.80;99.90;;;;;;5090073;28;20225;-82
2021/01/05 07:33:37;;;;;;;7.37;5.30;;;3.80;99.90;;;;;;5090722;28;20196;-82
2021/01/05 07:36:08;;;;;;;10.37;5.77;;;3.80;99.90;;;;;;5091445;28;20216;-83
2021/01/05 07:38:34;;;;;;;9.27;6.10;;;3.90;99.90;;;;;;5091439;28;20200;-85
2021/01/05 07:41:01;;;;;;;7.00;5.57;;;3.90;99.90;;;;;;5090802;28;20209;-82
2021/01/05 07:43:28;;;;;;;7.13;5.67;;;3.90;99.90;;;;;;5091091;28;20201;-82
2021/01/05 07:45:54;;;;;;;8.80;5.50;;;3.90;99.90;;;;;;5090821;28;20826;-83
2021/01/05 07:48:21;;;;;;;7.63;5.87;;;3.80;99.90;;;;;;5091013;28;20193;-81
2021/01/05 07:50:47;;;;;;;10.27;5.93;;;3.90;99.90;;;;;;5090273;28;20193;-82
2021/01/05 07:53:13;;;;;;;7.47;5.37;;;3.90;99.90;;;;;;5090802;28;20192;-88
2021/01/05 07:55:39;;;;;;;9.30;6.00;;;3.90;99.90;;;;;;5092243;28;20212;-82
2021/01/05 07:58:06;;;;;;;7.77;5.50;;;3.90;99.90;;;;;;5090144;28;20193;-82
2021/01/05 08:00:33;;;;;;;6.33;4.83;;;3.90;99.90;;;;;;5090356;28;20211;-85
2021/01/05 08:03:00;;;;;;;6.97;5.50;;;3.90;99.90;;;;;;5090429;28;20209;-83
2021/01/05 08:05:27;;;;;;;7.50;5.20;;;3.90;99.90;;;;;;5090729;28;20244;-86
2021/01/05 08:07:55;;;;;;;6.33;5.50;;;3.90;99.90;;;;;;5091834;28;20295;-84
2021/01/05 08:10:27;;;;;;;8.77;5.20;;;3.90;99.90;;;;;;5090962;28;20228;-83
2021/01/05 08:12:53;;;;;;;6.70;4.83;;;4.00;99.90;;;;;;5091412;28;20288;-82
2021/01/05 08:15:22;;;;;;;6.63;5.13;;;3.90;99.90;;;;;;5090078;28;20204;-85
2021/01/05 08:17:50;;;;;;;5.73;4.97;;;4.00;99.90;;;;;;5091505;28;20867;-89
2021/01/05 08:20:17;;;;;;;4.73;4.23;;;4.00;99.90;;;;;;5091016;28;20200;-82
2021/01/05 08:22:44;;;;;;;6.83;5.47;;;4.00;99.90;;;;;;5091949;28;20507;-89
2021/01/05 08:25:12;;;;;;;9.00;6.10;;;4.00;99.90;;;;;;5092502;28;20490;-90
2021/01/05 08:27:38;;;;;;;5.30;4.50;;;4.00;99.90;;;;;;5090911;28;20270;-90
2021/01/05 08:30:07;;;;;;;6.50;5.20;;;4.00;99.90;;;;;;5089924;28;20237;-86
2021/01/05 08:32:33;;;;;;;7.73;5.70;;;3.90;99.90;;;;;;5090106;28;20209;-91
2021/01/05 08:52:04;;;;;;;7.43;5.33;;;4.10;99.90;;;;;;4974904;28;20187;-83
2021/01/05 08:54:31;;;;;;;4.83;4.33;;;4.10;99.90;;;;;;4989718;28;20212;-88
2021/01/05 08:56:59;;;;;;;5.40;4.90;;;4.00;99.90;;;;;;5055489;28;20962;-88
2021/01/05 08:59:26;;;;;;;6.57;4.87;;;4.10;99.90;;;;;;5069215;28;20201;-90
2021/01/05 09:01:52;;;;;;;6.00;5.20;;;4.10;99.90;;;;;;5068831;28;20785;-84
2021/01/05 09:04:19;;;;;;;5.60;5.00;;;4.10;99.90;;;;;;5068215;28;20299;-89
2021/01/05 09:06:47;;;;;;;5.70;5.10;;;4.10;99.90;;;;;;5069140;28;20200;-90
2021/01/05 09:09:15;;;;;;;6.27;5.03;;;4.10;99.90;;;;;;5068711;28;20328;-90
2021/01/05 09:11:41;;;;;;;5.20;4.47;;;4.20;99.90;;;;;;5069056;28;20212;-83
2021/01/05 09:14:07;;;;;;;4.83;4.30;;;4.30;99.90;;;;;;5068607;28;20854;-88
2021/01/05 09:16:34;;;;;;;7.27;5.23;;;4.30;99.90;;;;;;5068079;28;20197;-90
2021/01/05 09:19:00;;;;;;;5.27;4.40;;;4.20;99.90;;;;;;5068462;28;20636;-89
2021/01/05 09:21:28;;;;;;;7.07;4.50;;;4.20;99.90;;;;;;5067596;28;20197;-83
2021/01/05 09:23:58;;;;;;;5.60;4.97;;;4.20;99.90;;;;;;5067240;28;20211;-86
2021/01/05 09:26:27;;;;;;;6.50;4.60;;;4.20;99.90;;;;;;5068381;28;20204;-85
2021/01/05 09:28:53;;;;;;;8.43;5.10;;;4.20;99.90;;;;;;5068543;28;20228;-88
2021/01/05 09:31:20;;;;;;;5.77;4.83;;;4.20;99.90;;;;;;5068634;28;20221;-83
2021/01/05 09:33:48;;;;;;;4.80;4.27;;;4.20;99.90;;;;;;5068455;28;20206;-87
2021/01/05 09:36:16;;;;;;;5.17;4.40;;;4.20;99.90;;;;;;5068314;28;20197;-85
2021/01/05 09:38:43;;;;;;;6.53;4.93;;;4.20;99.90;;;;;;5068275;28;20197;-88
2021/01/05 09:41:20;;;;;;;5.83;4.63;;;4.20;99.90;;;;;;5067765;28;20212;-82
2021/01/05 09:43:48;;;;;;;6.57;5.00;;;4.30;99.90;;;;;;5067444;28;20581;-86
2021/01/05 09:46:14;;;;;;;5.23;4.73;;;4.30;99.90;;;;;;5067396;28;20340;-88
2021/01/05 09:48:41;;;;;;;7.23;5.23;;;4.30;99.90;;;;;;5068214;28;20204;-89
2021/01/05 09:51:08;;;;;;;7.90;5.67;;;4.30;99.90;;;;;;5067436;28;20517;-82
2021/01/05 09:53:35;;;;;;;7.27;5.10;;;4.30;99.90;;;;;;5067681;28;20343;-82
2021/01/05 09:56:01;;;;;;;6.00;5.40;;;4.40;99.90;;;;;;5067883;28;20331;-88
2021/01/05 09:58:28;;;;;;;7.20;5.30;;;4.40;99.90;;;;;;5066886;28;20302;-86
2021/01/05 10:00:55;;;;;;;9.20;4.77;;;4.40;99.90;;;;;;5066601;28;20217;-87
2021/01/05 10:03:21;;;;;;;6.93;5.40;;;4.40;99.90;;;;;;5065760;28;20198;-82
2021/01/05 10:05:48;;;;;;;9.67;6.57;;;4.50;99.90;;;;;;5065639;28;20228;-89
2021/01/05 10:08:14;;;;;;;7.73;5.23;;;4.50;99.90;;;;;;5066502;28;20263;-85
2021/01/05 10:10:43;;;;;;;8.10;4.70;;;4.50;99.90;;;;;;5065041;28;20262;-83
2021/01/05 10:13:09;;;;;;;8.27;5.23;;;4.60;99.90;;;;;;5064463;28;20239;-85
2021/01/05 10:15:39;;;;;;;8.20;6.43;;;4.50;99.90;;;;;;5066395;28;20910;-89
2021/01/05 10:18:06;;;;;;;7.63;5.40;;;4.50;99.90;;;;;;5064913;28;20546;-89
2021/01/05 10:20:40;;;;;;;7.27;5.77;;;4.60;99.90;;;;;;5065528;28;20204;-84
2021/01/05 10:23:06;;;;;;;6.80;5.07;;;4.50;99.90;;;;;;5061188;28;20249;-83
2021/01/05 10:25:33;;;;;;;7.20;5.70;;;4.60;99.90;;;;;;5065213;28;20629;-85
2021/01/05 10:28:02;;;;;;;8.23;6.03;;;4.60;99.90;;;;;;5066160;28;20267;-85
2021/01/05 10:30:34;;;;;;;6.73;5.60;;;4.60;99.90;;;;;;5064958;28;20655;-87
2021/01/05 10:33:00;;;;;;;8.60;5.80;;;4.60;99.90;;;;;;5065322;28;20217;-81
2021/01/05 10:35:29;;;;;;;7.77;5.63;;;4.70;99.90;;;;;;5066755;28;20205;-91
2021/01/05 10:37:56;;;;;;;7.43;5.40;;;4.60;99.90;;;;;;5064900;28;20680;-92
2021/01/05 10:40:22;;;;;;;6.27;5.67;;;4.60;99.90;;;;;;5062061;28;20691;-84
2021/01/05 10:42:50;;;;;;;9.10;5.80;;;4.60;99.90;;;;;;5053558;28;20665;-82
2021/01/05 10:45:19;;;;;;;7.60;5.20;;;4.60;99.90;;;;;;5052754;28;20217;-86
2021/01/05 10:47:46;;;;;;;10.50;6.03;;;4.60;99.90;;;;;;5064192;28;20210;-84
2021/01/05 10:50:16;;;;;;;5.80;4.80;;;4.60;99.90;;;;;;5065167;28;20235;-81
2021/01/05 10:52:45;;;;;;;7.03;5.07;;;4.60;99.90;;;;;;5064414;28;20201;-86
2021/01/05 10:55:13;;;;;;;5.97;4.97;;;4.70;99.90;;;;;;5069668;28;20613;-87
2021/01/05 10:57:39;;;;;;;6.83;4.73;;;4.60;99.90;;;;;;5071419;28;20205;-85
2021/01/05 11:00:06;;;;;;;7.13;4.57;;;4.60;99.90;;;;;;5070907;28;20193;-83
2021/01/05 11:02:32;;;;;;;7.90;4.77;;;4.60;99.90;;;;;;5071345;28;20205;-85
2021/01/05 11:04:59;;;;;;;6.20;4.40;;;4.70;99.90;;;;;;5070789;28;20283;-84
2021/01/05 11:07:26;;;;;;;6.27;4.70;;;4.60;99.90;;;;;;5071217;28;20205;-83
2021/01/05 11:09:53;;;;;;;8.50;5.43;;;4.60;99.90;;;;;;5071576;28;20222;-85
2021/01/05 11:12:21;;;;;;;6.37;4.30;;;4.60;99.90;;;;;;5086376;28;20189;-81
2021/01/05 11:14:48;;;;;;;6.60;4.80;;;4.60;99.90;;;;;;5091428;28;20225;-83
2021/01/05 11:17:15;;;;;;;5.53;4.60;;;4.60;99.90;;;;;;5091300;28;20307;-84
2021/01/05 11:19:43;;;;;;;4.53;3.87;;;4.60;99.90;;;;;;5092643;28;20201;-84
2021/01/05 11:22:14;;;;;;;5.13;4.30;;;4.60;99.90;;;;;;5092232;28;20204;-83
2021/01/05 11:24:40;;;;;;;5.10;3.50;;;4.60;99.90;;;;;;5091608;28;20208;-84
2021/01/05 11:27:08;;;;;;;4.70;4.03;;;4.50;99.90;;;;;;5092156;28;20203;-85
2021/01/05 11:29:35;;;;;;;6.67;3.90;;;4.50;99.90;;;;;;5091610;28;20510;-84
2021/01/05 11:32:04;;;;;;;3.97;3.20;;;4.50;99.90;;;;;;5092337;28;20231;-84
2021/01/05 11:34:30;;;;;;;7.63;5.77;;;4.50;99.90;;;;;;5091755;28;20201;-81
2021/01/05 11:37:01;;;;;;;5.93;4.20;;;4.40;99.90;;;;;;5092111;28;20208;-84
2021/01/05 11:39:27;;;;;;;6.87;3.60;;;4.40;99.90;;;;;;5091548;28;20201;-83
2021/01/05 11:41:57;;;;;;;6.13;3.70;;;4.40;99.90;;;;;;5091234;28;20200;-81
2021/01/05 11:44:25;;;;;;;4.13;3.57;;;4.50;99.90;;;;;;5090313;28;20531;-84
2021/01/05 11:46:52;;;;;;;3.80;3.40;;;4.50;99.90;;;;;;5090871;28;20205;-82
2021/01/05 11:49:18;;;;;;;3.93;3.50;;;4.40;99.90;;;;;;5092267;28;20528;-84
2021/01/05 11:51:45;;;;;;;4.40;3.53;;;4.40;99.90;;;;;;5093149;28;20232;-86
2021/01/05 11:54:11;;;;;;;4.20;3.37;;;4.40;99.90;;;;;;5093652;28;20197;-91
2021/01/05 11:56:37;;;;;;;6.03;4.07;;;4.40;99.90;;;;;;5092821;28;20205;-89
2021/01/05 11:59:04;;;;;;;4.90;3.30;;;4.30;99.90;;;;;;5088243;28;20807;-86
2021/01/05 12:01:36;;;;;;;4.00;3.60;;;4.30;99.90;;;;;;5086221;28;20303;-84
2021/01/05 12:04:03;;;;;;;5.30;3.30;;;4.30;99.90;;;;;;5088903;28;20204;-84
2021/01/05 12:06:29;;;;;;;4.10;3.53;;;4.40;99.90;;;;;;5090458;28;20239;-83
2021/01/05 12:08:55;;;;;;;7.23;3.33;;;4.40;99.90;;;;;;5091311;28;20212;-84
2021/01/05 12:11:23;;;;;;;4.07;3.57;;;4.30;99.90;;;;;;5090753;28;20203;-84
2021/01/05 12:13:51;;;;;;;3.93;3.47;;;4.30;99.90;;;;;;5091281;28;20197;-83
2021/01/05 12:16:29;;;;;;;4.20;3.20;;;4.30;99.90;;;;;;5090315;28;20207;-83
2021/01/05 12:18:58;;;;;;;6.30;3.57;;;4.40;99.90;;;;;;5072891;28;20226;-83
2021/01/05 12:21:26;;;;;;;5.10;3.67;;;4.50;99.90;;;;;;5092138;28;20208;-86
2021/01/05 12:23:53;;;;;;;5.07;3.83;;;4.50;99.90;;;;;;5090597;28;20610;-84
2021/01/05 12:26:27;;;;;;;4.33;3.40;;;4.60;99.90;;;;;;5090677;28;20203;-83
2021/01/05 12:29:00;;;;;;;5.23;4.20;;;4.60;99.90;;;;;;5090852;28;20211;-90
2021/01/05 12:31:27;;;;;;;4.27;3.70;;;4.60;99.90;;;;;;5089430;28;20287;-84
2021/01/05 12:33:54;;;;;;;4.37;3.00;;;4.60;99.90;;;;;;5090857;28;20711;-83
2021/01/05 12:36:26;;;;;;;3.43;2.97;;;4.60;99.90;;;;;;5091392;28;20231;-83
2021/01/05 12:38:52;;;;;;;3.33;2.80;;;4.60;99.90;;;;;;5089105;28;20200;-84
2021/01/05 12:41:19;;;;;;;3.50;3.20;;;4.60;99.90;;;;;;5088809;28;20666;-84
2021/01/05 12:43:45;;;;;;;2.77;2.57;;;4.60;99.90;;;;;;5088862;28;20205;-83
2021/01/05 12:46:11;;;;;;;5.43;4.10;;;4.70;99.90;;;;;;5088436;28;20204;-85
2021/01/05 12:48:38;;;;;;;3.77;2.93;;;4.70;99.90;;;;;;5088917;28;20196;-83
2021/01/05 12:51:05;;;;;;;3.57;2.80;;;4.60;99.90;;;;;;5089479;28;20225;-85
2021/01/05 12:53:32;;;;;;;3.87;3.07;;;4.70;99.90;;;;;;5090130;28;20208;-82
2021/01/05 12:55:58;;;;;;;3.93;3.07;;;4.70;99.90;;;;;;5089229;28;20201;-91
2021/01/05 12:58:25;;;;;;;4.70;2.90;;;4.60;99.90;;;;;;5089278;28;20196;-86
2021/01/05 13:00:51;;;;;;;4.37;3.33;;;4.70;99.90;;;;;;5090132;28;20197;-83
2021/01/05 13:03:17;;;;;;;3.90;2.50;;;4.70;99.90;;;;;;5088501;28;20210;-81
2021/01/05 13:05:44;;;;;;;4.93;2.80;;;4.60;99.90;;;;;;5090796;28;20262;-86
2021/01/05 13:08:10;;;;;;;4.13;2.67;;;4.70;99.90;;;;;;5089945;28;20205;-88
2021/01/05 13:10:37;;;;;;;3.40;3.10;;;4.60;99.90;;;;;;5089285;28;20662;-89
2021/01/05 13:13:04;;;;;;;3.40;3.03;;;4.60;99.90;;;;;;5090054;28;20192;-85
2021/01/05 13:15:31;;;;;;;3.53;2.83;;;4.60;99.90;;;;;;5089069;28;20250;-84
2021/01/05 13:18:01;;;;;;;4.97;3.43;;;4.60;99.90;;;;;;5089560;28;20282;-84
2021/01/05 13:20:28;;;;;;;5.00;3.97;;;4.60;99.90;;;;;;5090462;28;20717;-90
2021/01/05 13:22:54;;;;;;;5.30;3.60;;;4.60;99.90;;;;;;5090229;28;20215;-86
2021/01/05 13:25:21;;;;;;;5.43;3.90;;;4.50;99.90;;;;;;5088813;28;20224;-86
2021/01/05 13:27:48;;;;;;;5.70;4.03;;;4.50;99.90;;;;;;5090368;28;20261;-86
2021/01/05 13:30:17;;;;;;;7.03;4.93;;;4.50;99.90;;;;;;5086981;28;20635;-84